createdAt,value
2022-10-18T00:00:12.577Z,101015.56
2022-10-18T00:02:40.953Z,101013.34
2022-10-18T00:05:10.311Z,101015.34
2022-10-18T00:07:38.905Z,101013.53
2022-10-18T00:10:11.419Z,101014.50
2022-10-18T00:12:41.971Z,101014.56
2022-10-18T00:15:13.513Z,101009.13
2022-10-18T00:17:42.304Z,101004.88
2022-10-18T00:20:12.883Z,100999.81
2022-10-18T00:22:43.122Z,101008.19
2022-10-18T00:25:11.699Z,101009.03
2022-10-18T00:27:40.275Z,101006.38
2022-10-18T00:30:12.676Z,101003.81
2022-10-18T00:32:43.182Z,101003.44
2022-10-18T00:35:11.654Z,101007.56
2022-10-18T00:37:40.002Z,101001.00
2022-10-18T00:40:10.525Z,101001.41
2022-10-18T00:42:39.587Z,101001.22
2022-10-18T00:45:25.780Z,101000.91
2022-10-18T00:48:03.272Z,100997.41
2022-10-18T00:50:35.341Z,100988.03
2022-10-18T00:53:10.062Z,100992.25
2022-10-18T00:55:38.449Z,100995.53
2022-10-18T00:58:07.949Z,100997.28
2022-10-18T01:00:40.935Z,100992.16
2022-10-18T01:03:10.764Z,100993.63
2022-10-18T01:05:49.282Z,100997.69
2022-10-18T01:08:41.167Z,100995.28
2022-10-18T01:11:36.029Z,100985.81
2022-10-18T01:14:20.444Z,100987.06
2022-10-18T01:17:00.537Z,100987.72
2022-10-18T01:20:09.561Z,100983.63
2022-10-18T01:22:44.582Z,100986.22
2022-10-18T01:25:31.278Z,101001.78
2022-10-18T01:28:14.045Z,101007.88
2022-10-18T01:30:53.018Z,101016.72
2022-10-18T01:33:39.444Z,101014.28
2022-10-18T01:36:15.298Z,101016.94
2022-10-18T01:38:45.958Z,101017.00
2022-10-18T01:41:16.168Z,101020.84
2022-10-18T01:43:47.735Z,101007.75
2022-10-18T01:46:23.347Z,101014.63
2022-10-18T01:48:53.586Z,101011.13
2022-10-18T01:51:26.611Z,101012.63
2022-10-18T01:53:55.395Z,101024.03
2022-10-18T01:56:36.533Z,101019.06
2022-10-18T01:59:24.205Z,101019.28
2022-10-18T02:02:07.520Z,101019.50
2022-10-18T02:04:45.644Z,101038.06
2022-10-18T02:07:26.145Z,101030.78
2022-10-18T02:10:04.430Z,101041.03
2022-10-18T02:12:34.997Z,101042.47
2022-10-18T02:15:06.253Z,101034.19
2022-10-18T02:17:36.150Z,101035.53
2022-10-18T02:20:09.959Z,101033.75
2022-10-18T02:22:42.434Z,101035.50
2022-10-18T02:25:15.120Z,101037.50
2022-10-18T02:27:43.574Z,101045.88
2022-10-18T02:30:13.459Z,101035.06
2022-10-18T02:32:49.814Z,101037.38
2022-10-18T02:35:26.323Z,101036.34
2022-10-18T02:37:56.335Z,101037.22
2022-10-18T02:40:25.576Z,101035.00
2022-10-18T02:42:59.598Z,101024.63
2022-10-18T02:45:28.762Z,101025.97
2022-10-18T02:47:58.888Z,101025.31
2022-10-18T02:50:27.890Z,101014.91
2022-10-18T02:52:56.154Z,101017.56
2022-10-18T02:55:25.265Z,101014.81
2022-10-18T02:57:53.786Z,101017.13
2022-10-18T03:00:22.300Z,101013.66
2022-10-18T03:02:50.637Z,101012.50
2022-10-18T03:05:20.898Z,101008.75
2022-10-18T03:07:49.376Z,101008.94
2022-10-18T03:10:18.041Z,101003.84
2022-10-18T03:12:47.049Z,100994.50
2022-10-18T03:15:15.696Z,100994.31
2022-10-18T03:17:44.026Z,100992.84
2022-10-18T03:20:13.881Z,100983.84
2022-10-18T03:22:43.864Z,100990.06
2022-10-18T03:25:12.124Z,100994.00
2022-10-18T03:27:40.769Z,100997.78
2022-10-18T03:30:11.908Z,100995.03
2022-10-18T03:32:40.538Z,100994.25
2022-10-18T03:35:10.855Z,100985.16
2022-10-18T03:37:40.618Z,100985.94
2022-10-18T03:40:12.780Z,100995.50
2022-10-18T03:42:41.530Z,100998.16
2022-10-18T03:45:11.359Z,100991.91
2022-10-18T03:47:40.019Z,100994.03
2022-10-18T03:50:09.871Z,101001.44
2022-10-18T03:52:38.222Z,101008.19
2022-10-18T03:55:08.119Z,101014.75
2022-10-18T03:57:37.837Z,101009.34
2022-10-18T04:00:08.232Z,101009.84
2022-10-18T04:02:40.426Z,101004.72
2022-10-18T04:05:10.409Z,101007.53
2022-10-18T04:07:38.763Z,101022.31
2022-10-18T04:10:08.662Z,101030.78
2022-10-18T04:12:38.248Z,101034.88
2022-10-18T04:15:08.532Z,101033.81
2022-10-18T04:17:37.140Z,101013.44
2022-10-18T04:20:06.590Z,101020.66
2022-10-18T04:22:35.030Z,101032.88
2022-10-18T04:25:04.141Z,101032.22
2022-10-18T04:27:32.793Z,101023.31
2022-10-18T04:30:03.266Z,101037.31
2022-10-18T04:32:31.839Z,101037.69
2022-10-18T04:35:00.925Z,101035.13
2022-10-18T04:37:29.872Z,101035.53
2022-10-18T04:39:58.694Z,101037.31
2022-10-18T04:42:29.251Z,101045.00
2022-10-18T04:44:58.252Z,101049.41
2022-10-18T04:47:28.490Z,101035.53
2022-10-18T04:49:57.474Z,101032.88
2022-10-18T04:52:25.838Z,101031.06
2022-10-18T04:54:54.058Z,101032.88
2022-10-18T04:57:22.357Z,101027.59
2022-10-18T04:59:50.638Z,101043.03
2022-10-18T05:02:19.291Z,101039.31
2022-10-18T05:04:49.284Z,101041.50
2022-10-18T05:07:18.156Z,101039.94
2022-10-18T05:09:46.534Z,101046.69
2022-10-18T05:12:14.989Z,101046.34
2022-10-18T05:14:43.699Z,101047.69
2022-10-18T05:17:11.996Z,101060.69
2022-10-18T05:19:40.884Z,101050.78
2022-10-18T05:22:10.766Z,101058.38
2022-10-18T05:24:39.205Z,101061.66
2022-10-18T05:27:08.023Z,101068.56
2022-10-18T05:29:36.424Z,101078.09
2022-10-18T05:32:05.698Z,101078.56
2022-10-18T05:34:34.339Z,101080.72
2022-10-18T05:37:02.968Z,101079.63
2022-10-18T05:39:33.211Z,101076.06
2022-10-18T05:42:02.518Z,101069.88
2022-10-18T05:44:30.942Z,101073.81
2022-10-18T05:46:59.347Z,101070.50
2022-10-18T05:49:27.639Z,101073.13
2022-10-18T05:51:56.283Z,101075.44
2022-10-18T05:54:24.550Z,101071.66
2022-10-18T05:56:54.499Z,101068.06
2022-10-18T05:59:22.876Z,101060.84
2022-10-18T06:01:51.410Z,101063.25
2022-10-18T06:04:19.681Z,101065.47
2022-10-18T06:06:48.151Z,101056.25
2022-10-18T06:09:16.844Z,101054.28
2022-10-18T06:11:45.431Z,101058.97
2022-10-18T06:14:15.261Z,101065.69
2022-10-18T06:16:43.873Z,101065.81
2022-10-18T06:19:12.405Z,101065.44
2022-10-18T06:21:40.848Z,101070.09
2022-10-18T06:24:09.109Z,101073.47
2022-10-18T06:26:37.703Z,101064.31
2022-10-18T06:29:06.416Z,101060.97
2022-10-18T06:31:36.450Z,101066.34
2022-10-18T06:34:04.940Z,101078.50
2022-10-18T06:36:33.816Z,101076.06
2022-10-18T06:39:02.732Z,101091.38
2022-10-18T06:41:31.499Z,101093.25
2022-10-18T06:44:17.413Z,101100.63
2022-10-18T06:46:48.717Z,101105.66
2022-10-18T06:49:19.213Z,101103.91
2022-10-18T06:51:48.053Z,101102.91
2022-10-18T06:54:18.689Z,101098.03
2022-10-18T06:56:48.106Z,101099.00
2022-10-18T06:59:16.451Z,101112.06
2022-10-18T07:01:46.371Z,101117.75
2022-10-18T07:04:17.557Z,101107.50
2022-10-18T07:06:46.289Z,101116.09
2022-10-18T07:09:14.954Z,101115.66
2022-10-18T07:11:43.392Z,101113.41
2022-10-18T07:14:16.051Z,101120.72
2022-10-18T07:16:46.418Z,101112.28
2022-10-18T07:19:14.991Z,101125.19
2022-10-18T07:21:43.309Z,101123.34
2022-10-18T07:24:11.799Z,101128.44
2022-10-18T07:26:40.663Z,101134.06
2022-10-18T07:29:13.168Z,101137.75
2022-10-18T07:31:41.439Z,101137.13
2022-10-18T07:34:15.201Z,101134.00
2022-10-18T07:36:43.592Z,101139.16
2022-10-18T07:39:11.891Z,101148.06
2022-10-18T07:41:40.322Z,101149.94
2022-10-18T07:44:09.255Z,101159.09
2022-10-18T07:46:37.991Z,101163.91
2022-10-18T07:49:06.412Z,101172.22
2022-10-18T07:51:36.334Z,101166.00
2022-10-18T07:54:05.360Z,101167.72
2022-10-18T07:56:33.748Z,101169.41
2022-10-18T07:59:06.259Z,101155.88
2022-10-18T08:01:35.719Z,101174.59
2022-10-18T08:04:07.461Z,101166.84
2022-10-18T08:06:39.066Z,101163.13
2022-10-18T08:09:08.009Z,101174.53
2022-10-18T08:11:36.201Z,101170.53
2022-10-18T08:14:08.968Z,101174.75
2022-10-18T08:16:40.158Z,101175.63
2022-10-18T08:19:09.617Z,101180.78
2022-10-18T08:21:39.303Z,101182.16
2022-10-18T08:24:07.908Z,101183.09
2022-10-18T08:26:36.564Z,101186.91
2022-10-18T08:29:22.539Z,101184.94
2022-10-18T08:31:53.368Z,101196.94
2022-10-18T08:34:21.788Z,101204.41
2022-10-18T08:36:51.787Z,101212.34
2022-10-18T08:39:20.291Z,101204.75
2022-10-18T08:42:14.247Z,101211.63
2022-10-18T08:44:48.033Z,101217.59
2022-10-18T08:47:19.572Z,101210.75
2022-10-18T08:49:53.091Z,101215.69
2022-10-18T08:52:35.682Z,101217.09
2022-10-18T08:55:11.503Z,101220.16
2022-10-18T08:57:40.146Z,101220.22
2022-10-18T09:00:17.417Z,101218.22
2022-10-18T09:03:07.419Z,101207.44
2022-10-18T09:05:46.349Z,101201.22
2022-10-18T09:08:51.820Z,101202.00
2022-10-18T09:11:35.118Z,101193.09
2022-10-18T09:14:42.522Z,101186.84
2022-10-18T09:17:27.405Z,101192.25
2022-10-18T09:20:12.504Z,101193.16
2022-10-18T09:22:53.620Z,101194.25
2022-10-18T09:25:26.121Z,101210.78
2022-10-18T09:27:57.402Z,101222.44
2022-10-18T09:30:41.657Z,101217.69
2022-10-18T09:33:28.944Z,101216.41
2022-10-18T09:36:01.705Z,101235.72
2022-10-18T09:38:44.482Z,101233.53
2022-10-18T09:41:19.338Z,101230.66
2022-10-18T09:43:56.208Z,101240.19
2022-10-18T09:46:29.090Z,101227.47
2022-10-18T09:49:04.928Z,101224.84
2022-10-18T09:51:38.306Z,101220.94
2022-10-18T09:54:24.593Z,101222.28
2022-10-18T09:57:04.733Z,101233.78
2022-10-18T09:59:41.221Z,101237.53
2022-10-18T10:02:15.956Z,101246.38
2022-10-18T10:04:44.749Z,101252.28
2022-10-18T10:07:18.063Z,101244.25
2022-10-18T10:09:48.576Z,101250.38
2022-10-18T10:12:32.496Z,101247.25
2022-10-18T10:15:21.377Z,101245.94
2022-10-18T10:18:02.373Z,101235.56
2022-10-18T10:20:38.198Z,101242.59
2022-10-18T10:23:10.204Z,101250.03
2022-10-18T10:25:40.857Z,101247.75
2022-10-18T10:28:19.622Z,101247.09
2022-10-18T10:30:48.519Z,101243.16
2022-10-18T10:33:36.221Z,101244.91
2022-10-18T10:36:16.963Z,101249.22
2022-10-18T10:38:45.455Z,101247.09
2022-10-18T10:41:23.265Z,101244.84
2022-10-18T10:43:54.923Z,101248.13
2022-10-18T10:46:23.996Z,101251.41
2022-10-18T10:49:14.181Z,101240.84
2022-10-18T10:51:50.601Z,101248.75
2022-10-18T10:54:28.625Z,101251.09
2022-10-18T10:57:02.156Z,101243.91
2022-10-18T11:02:23.413Z,101235.31
2022-10-18T11:04:54.342Z,101239.97
2022-10-18T11:07:28.864Z,101235.16
2022-10-18T11:10:04.727Z,101229.22
2022-10-18T11:12:37.658Z,101210.50
2022-10-18T11:15:22.113Z,101209.38
2022-10-18T11:18:10.280Z,101210.25
2022-10-18T11:20:44.511Z,101203.00
2022-10-18T11:23:15.048Z,101230.22
2022-10-18T11:26:10.749Z,101231.00
2022-10-18T11:29:01.811Z,101238.53
2022-10-18T11:31:37.009Z,101242.88
2022-10-18T11:34:33.545Z,101243.41
2022-10-18T11:37:34.531Z,101246.53
2022-10-18T11:40:22.957Z,101255.91
2022-10-18T11:43:01.159Z,101255.56
2022-10-18T11:45:43.545Z,101253.81
2022-10-18T11:48:42.966Z,101248.06
2022-10-18T11:51:29.655Z,101236.56
2022-10-18T11:54:33.088Z,101224.59
2022-10-18T11:57:17.612Z,101214.50
2022-10-18T11:59:59.658Z,101200.94
2022-10-18T12:03:01.247Z,101199.94
2022-10-18T12:05:33.202Z,101196.97
2022-10-18T12:08:09.072Z,101201.88
2022-10-18T12:10:46.114Z,101185.75
2022-10-18T12:13:35.759Z,101199.22
2022-10-18T12:16:06.725Z,101204.88
2022-10-18T12:18:37.427Z,101199.31
2022-10-18T12:21:08.242Z,101188.41
2022-10-18T12:23:45.531Z,101192.66
2022-10-18T12:26:14.674Z,101195.00
2022-10-18T12:28:59.380Z,101193.50
2022-10-18T12:31:35.283Z,101185.25
2022-10-18T12:34:12.141Z,101180.63
2022-10-18T12:37:15.400Z,101179.47
2022-10-18T12:40:09.029Z,101192.03
2022-10-18T12:42:44.069Z,101190.38
2022-10-18T12:45:30.380Z,101181.09
2022-10-18T12:48:02.796Z,101177.47
2022-10-18T12:50:36.467Z,101172.38
2022-10-18T12:53:20.277Z,101168.06
2022-10-18T12:55:53.612Z,101164.69
2022-10-18T12:58:32.475Z,101170.03
2022-10-18T13:01:05.313Z,101175.19
2022-10-18T13:04:01.802Z,101179.97
2022-10-18T13:07:18.743Z,101185.56
2022-10-18T13:10:38.306Z,101189.88
2022-10-18T13:13:41.974Z,101195.34
2022-10-18T13:16:34.056Z,101190.84
2022-10-18T13:19:24.281Z,101188.06
2022-10-18T13:22:11.839Z,101178.63
2022-10-18T13:24:46.386Z,101174.69
2022-10-18T13:27:36.358Z,101178.47
2022-10-18T13:30:43.263Z,101169.38
2022-10-18T13:33:32.508Z,101165.59
2022-10-18T13:36:04.198Z,101162.28
2022-10-18T13:38:48.764Z,101149.63
2022-10-18T13:41:20.808Z,101159.72
2022-10-18T13:44:13.425Z,101161.63
2022-10-18T13:47:12.244Z,101158.59
2022-10-18T13:50:04.051Z,101152.56
2022-10-18T13:52:54.652Z,101153.56
2022-10-18T13:55:55.832Z,101151.75
2022-10-18T13:58:49.004Z,101154.25
2022-10-18T14:01:40.285Z,101151.34
2022-10-18T14:04:39.561Z,101151.97
2022-10-18T14:07:10.174Z,101154.63
2022-10-18T14:09:49.971Z,101164.53
2022-10-18T14:12:32.005Z,101166.22
2022-10-18T14:15:09.355Z,101171.03
2022-10-18T14:17:46.230Z,101168.38
2022-10-18T14:20:27.357Z,101168.50
2022-10-18T14:23:07.946Z,101162.78
2022-10-18T14:25:39.393Z,101168.22
2022-10-18T14:28:14.301Z,101165.09
2022-10-18T14:30:57.681Z,101171.97
2022-10-18T14:33:36.378Z,101178.28
2022-10-18T14:36:14.654Z,101171.53
2022-10-18T14:38:52.440Z,101183.75
2022-10-18T14:41:24.952Z,101185.44
2022-10-18T14:43:54.827Z,101180.13
2022-10-18T14:46:29.108Z,101187.41
2022-10-18T14:49:06.620Z,101185.41
2022-10-18T14:51:37.815Z,101192.00
2022-10-18T14:54:09.188Z,101191.53
2022-10-18T14:56:41.312Z,101188.72
2022-10-18T14:59:20.264Z,101182.09
2022-10-18T15:01:59.784Z,101191.03
2022-10-18T15:04:33.255Z,101191.50
2022-10-18T15:07:04.831Z,101191.19
2022-10-18T15:09:36.490Z,101192.38
2022-10-18T15:12:08.167Z,101194.50
2022-10-18T15:14:37.829Z,101193.63
2022-10-18T15:17:14.137Z,101185.06
2022-10-18T15:19:59.402Z,101188.84
2022-10-18T15:22:33.008Z,101186.69
2022-10-18T15:25:16.958Z,101185.53
2022-10-18T15:27:49.004Z,101187.44
2022-10-18T15:30:25.055Z,101187.81
2022-10-18T15:32:56.884Z,101193.34
2022-10-18T15:35:32.894Z,101192.22
2022-10-18T15:38:03.674Z,101191.56
2022-10-18T15:40:42.909Z,101185.22
2022-10-18T15:43:44.692Z,101186.91
2022-10-18T15:46:33.126Z,101188.28
2022-10-18T15:49:57.172Z,101167.66
2022-10-18T15:52:48.370Z,101181.56
2022-10-18T15:55:53.814Z,101179.94
2022-10-18T15:58:26.651Z,101181.81
2022-10-18T16:01:00.769Z,101178.53
2022-10-18T16:03:29.988Z,101183.03
2022-10-18T16:06:06.608Z,101172.97
2022-10-18T16:08:42.399Z,101169.38
2022-10-18T16:11:16.882Z,101173.66
2022-10-18T16:13:46.666Z,101166.50
2022-10-18T16:16:18.116Z,101167.56
2022-10-18T16:18:47.633Z,101162.34
2022-10-18T16:21:20.586Z,101167.97
2022-10-18T16:23:51.389Z,101170.56
2022-10-18T16:26:22.432Z,101180.63
2022-10-18T16:28:52.469Z,101188.41
2022-10-18T16:31:24.245Z,101185.06
2022-10-18T16:33:54.916Z,101188.47
2022-10-18T16:36:26.114Z,101190.13
2022-10-18T16:38:57.199Z,101193.41
2022-10-18T16:41:26.287Z,101205.88
2022-10-18T16:43:56.114Z,101209.66
2022-10-18T16:46:32.184Z,101204.97
2022-10-18T16:49:01.777Z,101220.38
2022-10-18T16:51:31.013Z,101221.50
2022-10-18T16:54:01.589Z,101213.97
2022-10-18T16:56:32.490Z,101226.94
2022-10-18T16:59:02.315Z,101223.47
2022-10-18T17:01:33.110Z,101236.28
2022-10-18T17:04:09.123Z,101240.56
2022-10-18T17:06:38.037Z,101238.44
2022-10-18T17:09:08.241Z,101246.88
2022-10-18T17:11:38.620Z,101247.03
2022-10-18T17:14:07.813Z,101253.59
2022-10-18T17:16:39.454Z,101254.88
2022-10-18T17:19:14.788Z,101257.56
2022-10-18T17:21:43.678Z,101265.91
2022-10-18T17:24:13.628Z,101267.84
2022-10-18T17:26:42.672Z,101270.47
2022-10-18T17:29:12.302Z,101265.75
2022-10-18T17:31:41.326Z,101265.19
2022-10-18T17:34:10.690Z,101260.22
2022-10-18T17:36:40.900Z,101253.34
2022-10-18T17:39:13.731Z,101253.41
2022-10-18T17:41:43.938Z,101264.41
2022-10-18T17:44:13.365Z,101273.19
2022-10-18T17:46:43.512Z,101275.00
2022-10-18T17:49:14.206Z,101274.34
2022-10-18T17:51:45.563Z,101283.22
2022-10-18T17:54:16.656Z,101276.41
2022-10-18T17:56:48.143Z,101279.59
2022-10-18T17:59:19.711Z,101278.38
2022-10-18T18:01:50.945Z,101269.38
2022-10-18T18:04:20.525Z,101290.53
2022-10-18T18:06:49.616Z,101294.72
2022-10-18T18:09:21.502Z,101291.81
2022-10-18T18:11:51.940Z,101286.53
2022-10-18T18:14:21.990Z,101287.66
2022-10-18T18:16:51.809Z,101287.63
2022-10-18T18:19:21.243Z,101285.69
2022-10-18T18:21:53.725Z,101290.69
2022-10-18T18:24:26.095Z,101287.75
2022-10-18T18:26:57.573Z,101300.06
2022-10-18T18:29:29.661Z,101295.09
2022-10-18T18:32:00.135Z,101302.13
2022-10-18T18:34:28.772Z,101293.38
2022-10-18T18:36:58.253Z,101293.75
2022-10-18T18:39:30.675Z,101292.50
2022-10-18T18:41:59.161Z,101288.22
2022-10-18T18:44:27.638Z,101288.47
2022-10-18T18:46:56.621Z,101294.16
2022-10-18T18:49:26.996Z,101284.16
2022-10-18T18:51:55.510Z,101287.97
2022-10-18T18:54:24.863Z,101291.19
2022-10-18T18:56:54.755Z,101286.09
2022-10-18T18:59:23.011Z,101283.00
2022-10-18T19:01:51.539Z,101272.06
2022-10-18T19:04:19.779Z,101279.19
2022-10-18T19:06:48.382Z,101279.09
2022-10-18T19:09:21.988Z,101289.63
2022-10-18T19:11:52.927Z,101290.31
2022-10-18T19:14:23.979Z,101284.38
2022-10-18T19:16:57.465Z,101290.72
2022-10-18T19:19:28.204Z,101288.63
2022-10-18T19:21:59.270Z,101291.28
2022-10-18T19:24:31.234Z,101291.81
2022-10-18T19:27:02.239Z,101290.50
2022-10-18T19:29:34.713Z,101290.78
2022-10-18T19:32:04.347Z,101286.38
2022-10-18T19:34:34.291Z,101284.66
2022-10-18T19:37:03.230Z,101285.59
2022-10-18T19:39:33.639Z,101288.03
2022-10-18T19:42:04.554Z,101288.09
2022-10-18T19:44:36.696Z,101285.78
2022-10-18T19:47:05.337Z,101285.94
2022-10-18T19:49:34.090Z,101290.53
2022-10-18T19:52:02.472Z,101293.31
2022-10-18T19:54:30.892Z,101292.53
2022-10-18T19:56:59.195Z,101290.28
2022-10-18T19:59:27.891Z,101287.16
2022-10-18T20:01:57.638Z,101287.84
2022-10-18T20:04:26.143Z,101291.31
2022-10-18T20:06:54.682Z,101294.38
2022-10-18T20:09:23.697Z,101290.84
2022-10-18T20:11:52.026Z,101295.72
2022-10-18T20:14:21.178Z,101291.22
2022-10-18T20:16:49.814Z,101296.19
2022-10-18T20:19:20.505Z,101294.31
2022-10-18T20:21:48.921Z,101297.38
2022-10-18T20:24:17.427Z,101296.72
2022-10-18T20:26:46.002Z,101291.97
2022-10-18T20:29:14.990Z,101290.25
2022-10-18T20:31:43.492Z,101293.41
2022-10-18T20:34:13.656Z,101293.50
2022-10-18T20:36:43.635Z,101292.03
2022-10-18T20:39:12.226Z,101291.84
2022-10-18T20:41:41.883Z,101295.28
2022-10-18T20:44:16.103Z,101292.53
2022-10-18T20:46:45.425Z,101293.28
2022-10-18T20:49:16.413Z,101287.00
2022-10-18T20:51:46.385Z,101279.00
2022-10-18T20:54:16.418Z,101282.81
2022-10-18T20:56:45.201Z,101284.97
2022-10-18T20:59:14.124Z,101280.69
2022-10-18T21:01:43.366Z,101283.56
2022-10-18T21:04:11.944Z,101292.22
2022-10-18T21:06:42.392Z,101292.94
2022-10-18T21:09:14.894Z,101297.19
2022-10-18T21:11:46.369Z,101288.75
2022-10-18T21:14:18.255Z,101284.97
2022-10-18T21:16:48.011Z,101287.25
2022-10-18T21:19:19.195Z,101289.72
2022-10-18T21:21:50.995Z,101291.03
2022-10-18T21:24:22.586Z,101291.53
2022-10-18T21:26:51.147Z,101289.53
2022-10-18T21:29:22.464Z,101283.47
2022-10-18T21:31:55.551Z,101281.91
2022-10-18T21:34:24.311Z,101278.59
2022-10-18T21:36:52.965Z,101271.69
2022-10-18T21:39:25.264Z,101266.69
2022-10-18T21:41:54.108Z,101271.81
2022-10-18T21:44:22.643Z,101269.19
2022-10-18T21:46:51.663Z,101274.44
2022-10-18T21:49:23.433Z,101273.13
2022-10-18T21:51:51.782Z,101275.50
2022-10-18T21:54:20.221Z,101275.25
2022-10-18T21:56:51.159Z,101264.06
2022-10-18T21:59:19.438Z,101266.69
2022-10-18T22:01:48.145Z,101260.19
2022-10-18T22:04:22.666Z,101267.63
2022-10-18T22:06:52.021Z,101269.31
2022-10-18T22:09:22.172Z,101267.19
2022-10-18T22:11:54.512Z,101262.09
2022-10-18T22:14:23.635Z,101265.03
2022-10-18T22:16:52.120Z,101265.97
2022-10-18T22:19:20.874Z,101257.53
2022-10-18T22:21:49.898Z,101250.88
2022-10-18T22:24:18.772Z,101254.78
2022-10-18T22:26:48.140Z,101262.63
2022-10-18T22:29:20.343Z,101250.72
2022-10-18T22:31:52.294Z,101256.78
2022-10-18T22:34:23.182Z,101258.75
2022-10-18T22:36:52.024Z,101256.94
2022-10-18T22:39:20.929Z,101259.16
2022-10-18T22:41:54.184Z,101253.66
2022-10-18T22:44:24.379Z,101258.28
2022-10-18T22:46:53.006Z,101251.41
2022-10-18T22:49:21.942Z,101255.22
2022-10-18T22:51:50.262Z,101254.53
2022-10-18T22:54:18.985Z,101251.47
2022-10-18T22:56:47.352Z,101246.09
2022-10-18T22:59:16.132Z,101251.91
2022-10-18T23:01:46.062Z,101248.47
2022-10-18T23:04:14.746Z,101247.91
2022-10-18T23:06:43.029Z,101241.00
2022-10-18T23:09:13.128Z,101233.03
2022-10-18T23:11:42.381Z,101226.03
2022-10-18T23:14:12.245Z,101233.59
2022-10-18T23:16:40.732Z,101226.44
2022-10-18T23:19:17.273Z,101216.00
2022-10-18T23:21:45.871Z,101222.78
2022-10-18T23:24:14.252Z,101226.97
2022-10-18T23:26:45.315Z,101224.56
2022-10-18T23:29:13.784Z,101222.34
2022-10-18T23:31:42.385Z,101225.22
2022-10-18T23:34:12.291Z,101229.47
2022-10-18T23:36:41.111Z,101217.63
2022-10-18T23:39:09.576Z,101218.75
2022-10-18T23:41:38.002Z,101218.88
2022-10-18T23:44:09.030Z,101224.06
2022-10-18T23:46:37.454Z,101235.31
2022-10-18T23:49:05.979Z,101230.91
2022-10-18T23:51:35.778Z,101237.94
2022-10-18T23:54:04.191Z,101234.88
2022-10-18T23:56:32.475Z,101235.22
2022-10-18T23:59:00.970Z,101227.34
